Time;durP1;ratioP1;P1;durP2;ratioP2;P2;SDS_P1;SDS_P2;PMS_P1;PMS_P2;Temp;Humidity;BMP_temperature;BMP_pressure;BME280_temperature;BME280_humidity;BME280_pressure;Samples;Min_cycle;Max_cycle;Signal;HPM_P1;HPM_P2
2023/05/19 00:00:52;;;;;;;4.33;2.30;;;13.70;94.40;;;;;;5036347;28;20539;-71
2023/05/19 00:03:20;;;;;;;7.47;2.50;;;13.60;94.30;;;;;;5028681;28;20482;-72
2023/05/19 00:05:48;;;;;;;5.23;2.70;;;13.60;94.40;;;;;;5039451;28;20467;-72
2023/05/19 00:08:16;;;;;;;5.10;2.93;;;13.60;94.30;;;;;;5027564;28;20478;-71
2023/05/19 00:10:42;;;;;;;2.37;2.17;;;13.60;94.40;;;;;;5030558;28;20455;-71
2023/05/19 00:13:08;;;;;;;2.90;2.30;;;13.60;94.30;;;;;;5029676;28;20479;-71
2023/05/19 00:15:34;;;;;;;2.40;1.97;;;13.60;94.30;;;;;;5030007;28;20474;-72
2023/05/19 00:18:00;;;;;;;7.97;2.43;;;13.60;94.30;;;;;;5030433;28;20470;-72
2023/05/19 00:20:26;;;;;;;3.77;2.30;;;13.50;94.40;;;;;;5028208;28;20460;-72
2023/05/19 00:22:52;;;;;;;3.37;2.00;;;13.40;94.50;;;;;;5026669;28;20494;-71
2023/05/19 00:25:17;;;;;;;2.53;2.30;;;13.40;94.50;;;;;;5009510;28;20333;-72
2023/05/19 00:27:43;;;;;;;2.17;1.97;;;13.40;94.50;;;;;;5028113;28;20660;-72
2023/05/19 00:30:09;;;;;;;5.03;2.30;;;13.30;94.50;;;;;;5026448;28;20217;-71
2023/05/19 00:32:35;;;;;;;2.13;1.93;;;13.20;94.70;;;;;;5011184;28;20212;-70
2023/05/19 00:35:00;;;;;;;5.60;1.93;;;13.20;94.70;;;;;;5019571;28;21051;-71
2023/05/19 00:37:26;;;;;;;2.17;1.97;;;13.10;94.80;;;;;;5016391;28;20221;-71
2023/05/19 00:39:52;;;;;;;3.30;2.23;;;13.10;94.70;;;;;;5026327;28;20232;-70
2023/05/19 00:42:19;;;;;;;3.43;2.33;;;13.10;94.70;;;;;;5032440;28;20311;-71
2023/05/19 00:44:45;;;;;;;3.03;2.00;;;13.00;94.70;;;;;;5020951;28;20218;-70
2023/05/19 00:47:10;;;;;;;5.90;2.57;;;13.00;94.70;;;;;;5034985;28;20958;-71
2023/05/19 00:49:36;;;;;;;4.13;2.20;;;13.00;94.60;;;;;;5030631;28;20219;-70
2023/05/19 00:52:04;;;;;;;2.50;1.93;;;12.90;94.90;;;;;;5042290;28;20276;-72
2023/05/19 00:54:32;;;;;;;4.07;1.93;;;13.00;94.60;;;;;;5026903;28;20220;-72
2023/05/19 00:56:59;;;;;;;1.80;1.70;;;12.90;94.80;;;;;;5022279;28;20498;-72
2023/05/19 00:59:24;;;;;;;1.77;1.40;;;12.90;94.70;;;;;;5025614;28;20467;-71
2023/05/19 01:01:51;;;;;;;2.10;2.00;;;12.90;95.00;;;;;;5025753;28;20467;-71
2023/05/19 01:04:20;;;;;;;2.57;2.37;;;12.90;94.80;;;;;;5040136;28;20212;-72
2023/05/19 01:06:53;;;;;;;3.67;2.00;;;12.90;94.80;;;;;;5026439;28;20471;-71
2023/05/19 01:09:22;;;;;;;1.83;1.73;;;12.90;94.80;;;;;;5045144;28;20443;-72
2023/05/19 01:11:52;;;;;;;3.80;2.00;;;12.90;94.90;;;;;;5027660;28;20452;-71
2023/05/19 01:14:19;;;;;;;3.53;2.30;;;12.90;94.80;;;;;;5031890;28;20501;-71
2023/05/19 01:17:04;;;;;;;6.77;1.87;;;12.90;94.70;;;;;;5030424;28;20456;-71
2023/05/19 01:19:39;;;;;;;1.97;1.87;;;12.90;95.00;;;;;;5029438;28;20789;-71
2023/05/19 01:22:36;;;;;;;2.33;2.13;;;12.80;94.80;;;;;;5021196;28;20474;-72
2023/05/19 01:25:21;;;;;;;6.30;1.93;;;12.80;94.90;;;;;;5013298;28;20459;-71
2023/05/19 01:28:22;;;;;;;2.10;1.60;;;12.80;94.80;;;;;;5037885;28;20480;-72
2023/05/19 01:30:54;;;;;;;2.00;1.80;;;12.80;94.80;;;;;;5004557;28;20467;-70
2023/05/19 01:33:21;;;;;;;3.50;1.83;;;12.70;94.90;;;;;;5023414;28;20451;-71
2023/05/19 01:35:49;;;;;;;3.70;2.27;;;12.70;95.40;;;;;;5012498;28;20817;-72
2023/05/19 01:38:17;;;;;;;3.27;1.70;;;12.60;95.20;;;;;;5021884;28;20851;-71
2023/05/19 01:40:43;;;;;;;2.70;1.77;;;12.50;95.10;;;;;;5050036;28;20451;-72
2023/05/19 01:43:13;;;;;;;2.50;2.30;;;12.60;95.20;;;;;;5014475;28;21232;-72
2023/05/19 01:45:39;;;;;;;6.10;1.77;;;12.60;95.10;;;;;;5012929;28;21017;-72
2023/05/19 01:48:06;;;;;;;4.47;2.63;;;12.60;95.20;;;;;;5024111;28;20468;-72
2023/05/19 01:50:32;;;;;;;6.47;2.50;;;12.60;95.10;;;;;;5024099;28;20961;-71
2023/05/19 01:52:59;;;;;;;3.33;2.23;;;12.50;95.00;;;;;;5008545;28;20503;-72
2023/05/19 01:55:25;;;;;;;1.73;1.63;;;12.50;95.10;;;;;;5028364;28;20455;-71
2023/05/19 01:58:17;;;;;;;2.50;2.30;;;12.50;95.10;;;;;;5041695;28;20518;-72
2023/05/19 02:00:51;;;;;;;2.20;1.80;;;12.40;95.20;;;;;;5037197;28;20463;-70
2023/05/19 02:03:23;;;;;;;4.63;1.67;;;12.50;95.20;;;;;;5026879;28;20463;-71
2023/05/19 02:05:58;;;;;;;4.83;2.20;;;12.60;94.90;;;;;;5035716;28;20470;-70
2023/05/19 02:08:40;;;;;;;4.10;2.10;;;12.60;95.00;;;;;;5031282;28;20459;-71
2023/05/19 02:11:13;;;;;;;2.30;2.13;;;12.60;95.00;;;;;;5017738;28;21045;-71
2023/05/19 02:13:42;;;;;;;3.80;1.70;;;12.60;95.00;;;;;;5018092;28;20459;-72
2023/05/19 02:16:12;;;;;;;4.07;2.00;;;12.60;94.90;;;;;;5013371;28;20551;-71
2023/05/19 02:18:44;;;;;;;1.50;1.40;;;12.60;94.90;;;;;;5031482;28;20456;-71
2023/05/19 02:21:12;;;;;;;2.63;1.70;;;12.50;95.00;;;;;;5034812;28;21245;-71
2023/05/19 02:23:39;;;;;;;2.60;1.83;;;12.50;95.00;;;;;;5034214;28;20469;-71
2023/05/19 02:26:07;;;;;;;2.00;1.83;;;12.50;95.10;;;;;;5040576;28;21013;-70
2023/05/19 02:28:33;;;;;;;1.87;1.77;;;12.50;95.10;;;;;;5030830;28;20476;-72
2023/05/19 02:31:00;;;;;;;2.40;2.10;;;12.50;95.00;;;;;;5032841;28;20483;-71
2023/05/19 02:33:29;;;;;;;2.83;1.77;;;12.40;95.10;;;;;;5009203;28;20481;-71
2023/05/19 02:35:55;;;;;;;2.70;1.70;;;12.40;95.20;;;;;;5023382;28;20491;-71
2023/05/19 02:38:22;;;;;;;3.53;2.37;;;12.40;95.30;;;;;;5014171;28;20456;-71
2023/05/19 02:40:50;;;;;;;2.43;2.07;;;12.30;95.40;;;;;;5028406;28;20452;-71
2023/05/19 02:43:15;;;;;;;5.83;2.40;;;12.30;95.40;;;;;;5013626;28;20632;-71
2023/05/19 02:45:41;;;;;;;2.83;2.00;;;12.30;95.20;;;;;;5027391;28;20460;-71
2023/05/19 02:48:06;;;;;;;1.80;1.70;;;12.30;95.20;;;;;;5019653;28;20282;-72
2023/05/19 02:50:32;;;;;;;2.13;1.70;;;12.30;95.40;;;;;;5030060;28;20225;-71
2023/05/19 02:52:58;;;;;;;2.57;2.37;;;12.20;95.30;;;;;;5034676;28;20212;-72
2023/05/19 02:55:23;;;;;;;9.00;2.40;;;12.20;95.60;;;;;;5040129;28;20224;-71
2023/05/19 02:57:49;;;;;;;2.30;1.97;;;12.20;95.30;;;;;;5027682;28;20221;-71
2023/05/19 03:00:15;;;;;;;5.80;2.10;;;12.20;95.40;;;;;;5018681;28;20221;-69
2023/05/19 03:02:42;;;;;;;1.93;1.80;;;12.10;95.30;;;;;;5019128;28;20228;-70
2023/05/19 03:05:09;;;;;;;4.80;2.43;;;12.00;95.60;;;;;;5017579;28;20546;-72
2023/05/19 03:07:35;;;;;;;2.83;2.23;;;12.10;95.60;;;;;;5029477;28;20463;-69
2023/05/19 03:10:05;;;;;;;2.30;2.00;;;12.10;95.60;;;;;;5025207;28;20856;-72
2023/05/19 03:12:32;;;;;;;2.20;1.60;;;12.20;95.50;;;;;;5045070;28;20232;-71
2023/05/19 03:14:58;;;;;;;2.03;1.83;;;12.10;95.30;;;;;;5019046;28;20506;-71
2023/05/19 03:17:24;;;;;;;5.70;2.03;;;12.10;95.30;;;;;;5025609;28;20538;-71
2023/05/19 03:19:50;;;;;;;4.00;2.17;;;12.10;95.40;;;;;;5034793;28;20578;-70
2023/05/19 03:22:17;;;;;;;2.63;1.90;;;12.10;95.30;;;;;;5032137;28;20225;-71
2023/05/19 03:24:43;;;;;;;2.90;2.47;;;12.00;95.40;;;;;;5025817;28;20220;-71
2023/05/19 03:27:11;;;;;;;4.53;2.23;;;12.00;95.40;;;;;;5016990;28;20515;-71
2023/05/19 03:29:36;;;;;;;3.03;2.27;;;12.10;95.40;;;;;;5018146;28;20513;-69
2023/05/19 03:32:02;;;;;;;4.07;2.30;;;12.00;95.50;;;;;;5012196;28;20456;-70
2023/05/19 03:34:28;;;;;;;2.97;2.10;;;12.00;95.60;;;;;;5027360;28;20288;-71
2023/05/19 03:36:54;;;;;;;2.10;2.00;;;12.00;95.70;;;;;;5025151;28;20209;-71
2023/05/19 03:39:20;;;;;;;2.70;2.07;;;11.90;95.70;;;;;;5026818;28;20448;-71
2023/05/19 03:41:47;;;;;;;2.77;2.00;;;11.90;95.70;;;;;;5012058;28;20452;-71
2023/05/19 03:44:14;;;;;;;2.10;1.80;;;11.90;95.80;;;;;;5010636;28;20460;-70
2023/05/19 03:46:39;;;;;;;4.73;2.00;;;12.00;95.60;;;;;;5016476;28;20515;-70
2023/05/19 03:49:31;;;;;;;2.60;1.80;;;12.00;95.50;;;;;;5015935;28;20271;-71
2023/05/19 03:52:20;;;;;;;1.97;1.53;;;12.00;95.60;;;;;;5002585;28;20442;-71
2023/05/19 03:54:53;;;;;;;2.23;2.03;;;12.00;95.60;;;;;;5026710;28;20456;-70
2023/05/19 03:57:19;;;;;;;6.57;2.10;;;12.00;95.60;;;;;;5026539;28;20502;-70
2023/05/19 03:59:46;;;;;;;2.47;1.80;;;11.90;95.60;;;;;;5040809;28;20217;-71
2023/05/19 04:02:12;;;;;;;4.97;4.47;;;11.80;95.80;;;;;;5026359;28;20463;-71
2023/05/19 04:04:37;;;;;;;2.20;2.00;;;11.80;95.80;;;;;;5035979;28;20225;-70
2023/05/19 04:07:03;;;;;;;3.70;2.10;;;11.80;95.80;;;;;;5025017;28;20242;-71
2023/05/19 04:09:30;;;;;;;3.13;2.00;;;11.80;95.70;;;;;;5027058;28;20580;-71
2023/05/19 04:11:56;;;;;;;2.00;1.50;;;11.90;95.80;;;;;;5027106;28;20308;-70
2023/05/19 04:14:23;;;;;;;2.20;2.03;;;11.90;95.90;;;;;;5006269;28;20471;-70
2023/05/19 04:16:49;;;;;;;1.60;1.50;;;11.80;95.90;;;;;;5030915;28;20452;-71
2023/05/19 04:19:18;;;;;;;3.83;1.90;;;11.80;95.90;;;;;;5024917;28;20322;-72
2023/05/19 04:21:43;;;;;;;2.17;2.00;;;11.80;95.90;;;;;;5026788;28;20451;-71
2023/05/19 04:24:09;;;;;;;2.87;1.90;;;11.90;95.90;;;;;;5013452;28;20489;-71
2023/05/19 04:26:37;;;;;;;4.90;1.77;;;11.90;95.80;;;;;;5016615;28;20374;-70
2023/05/19 04:29:03;;;;;;;5.73;2.00;;;12.00;95.80;;;;;;5027855;28;20219;-71
2023/05/19 04:31:29;;;;;;;2.20;2.10;;;11.90;95.60;;;;;;5031846;28;20529;-71
2023/05/19 04:33:55;;;;;;;3.43;1.80;;;11.90;95.70;;;;;;5006995;28;20501;-71
2023/05/19 04:36:22;;;;;;;2.70;1.83;;;11.90;95.80;;;;;;5026331;28;20249;-71
2023/05/19 04:38:53;;;;;;;4.63;1.70;;;11.90;95.60;;;;;;5037526;28;20458;-71
2023/05/19 04:41:20;;;;;;;3.10;1.67;;;11.90;95.80;;;;;;5052407;28;20471;-72
2023/05/19 04:43:47;;;;;;;4.80;2.30;;;11.90;96.20;;;;;;5048390;28;20483;-70
2023/05/19 04:46:13;;;;;;;7.40;2.10;;;11.80;96.00;;;;;;5029787;28;20459;-72
2023/05/19 04:48:39;;;;;;;2.27;1.80;;;11.70;96.10;;;;;;5049303;28;20458;-71
2023/05/19 04:51:06;;;;;;;1.77;1.60;;;11.80;96.30;;;;;;5048855;28;20459;-71
2023/05/19 04:53:32;;;;;;;3.73;2.20;;;11.80;96.40;;;;;;5050669;28;20262;-71
2023/05/19 04:55:59;;;;;;;2.13;1.80;;;11.70;96.40;;;;;;5032839;28;20486;-71
2023/05/19 04:58:26;;;;;;;3.00;2.23;;;11.70;96.50;;;;;;5042098;28;20509;-71
2023/05/19 05:00:57;;;;;;;2.10;2.00;;;11.80;96.50;;;;;;5026122;28;20539;-70
2023/05/19 05:03:23;;;;;;;2.00;1.80;;;11.80;96.70;;;;;;5033269;28;20877;-71
2023/05/19 05:05:50;;;;;;;2.93;2.10;;;11.80;96.70;;;;;;5029785;28;20456;-71
2023/05/19 05:08:21;;;;;;;1.83;1.70;;;11.80;96.70;;;;;;5028635;28;20507;-70
2023/05/19 05:10:50;;;;;;;1.90;1.80;;;11.70;96.60;;;;;;5035588;28;20456;-71
2023/05/19 05:13:16;;;;;;;4.67;2.03;;;11.80;96.90;;;;;;5026358;28;20989;-73
2023/05/19 05:15:42;;;;;;;1.77;1.53;;;11.80;96.70;;;;;;5030292;28;20451;-71
2023/05/19 05:18:09;;;;;;;2.27;1.87;;;11.80;96.80;;;;;;5013672;28;21043;-71
2023/05/19 05:20:37;;;;;;;2.27;1.80;;;11.80;97.00;;;;;;5037030;28;20478;-70
2023/05/19 05:23:02;;;;;;;3.30;2.00;;;11.90;97.00;;;;;;5028872;28;20480;-72
2023/05/19 05:25:30;;;;;;;1.60;1.50;;;11.90;97.00;;;;;;5029168;28;20452;-71
2023/05/19 05:27:57;;;;;;;4.40;1.50;;;11.90;97.10;;;;;;4990188;28;20458;-71
2023/05/19 05:30:23;;;;;;;2.27;2.07;;;11.90;97.40;;;;;;5006080;28;20471;-71
2023/05/19 05:32:49;;;;;;;3.10;1.80;;;11.90;97.30;;;;;;5030643;28;20859;-71
2023/05/19 05:35:27;;;;;;;1.93;1.80;;;12.00;97.30;;;;;;5013374;28;20765;-72
2023/05/19 05:37:53;;;;;;;4.10;2.03;;;12.00;97.30;;;;;;5012792;28;20453;-71
2023/05/19 05:40:19;;;;;;;2.50;2.30;;;12.10;97.60;;;;;;5010149;28;20750;-71
2023/05/19 05:42:45;;;;;;;3.53;1.63;;;12.10;97.70;;;;;;5006829;28;20476;-71
2023/05/19 05:45:12;;;;;;;3.63;2.17;;;12.10;97.90;;;;;;5009925;28;20482;-71
2023/05/19 05:47:40;;;;;;;3.50;2.00;;;12.10;97.70;;;;;;5022932;28;20343;-70
2023/05/19 05:50:08;;;;;;;4.50;2.10;;;12.20;97.70;;;;;;5018312;28;20475;-71
2023/05/19 05:52:36;;;;;;;2.17;1.97;;;12.20;97.60;;;;;;5011141;28;20961;-71
2023/05/19 05:55:05;;;;;;;3.53;1.83;;;12.30;97.90;;;;;;5015248;28;20994;-71
2023/05/19 05:57:35;;;;;;;2.80;1.47;;;12.30;98.00;;;;;;5012700;28;20476;-71
2023/05/19 06:00:01;;;;;;;3.80;1.90;;;12.40;98.00;;;;;;4999658;28;21034;-71
2023/05/19 06:02:28;;;;;;;8.70;2.33;;;12.50;98.40;;;;;;5030613;28;20599;-71
2023/05/19 06:04:56;;;;;;;13.10;2.33;;;12.50;98.00;;;;;;4981830;28;20494;-72
2023/05/19 06:07:23;;;;;;;2.07;1.80;;;12.50;98.00;;;;;;5014086;28;20459;-72
2023/05/19 06:09:49;;;;;;;3.00;2.80;;;12.60;98.30;;;;;;5007234;28;20714;-71
2023/05/19 06:12:14;;;;;;;2.03;1.57;;;12.60;98.50;;;;;;5017831;28;20450;-72
2023/05/19 06:14:45;;;;;;;2.37;2.20;;;12.80;98.90;;;;;;5033191;28;20700;-72
2023/05/19 06:17:30;;;;;;;2.13;1.60;;;12.90;98.80;;;;;;5016711;28;20448;-71
2023/05/19 06:19:56;;;;;;;2.10;1.73;;;13.00;98.70;;;;;;5032431;28;20444;-71
2023/05/19 06:22:23;;;;;;;1.53;1.43;;;13.10;98.50;;;;;;5009397;28;20822;-70
2023/05/19 06:24:49;;;;;;;3.47;2.27;;;13.10;98.20;;;;;;5020467;28;20459;-71
2023/05/19 06:27:15;;;;;;;5.60;1.87;;;13.10;98.60;;;;;;5018388;28;20225;-70
2023/05/19 06:29:40;;;;;;;2.07;1.97;;;13.20;98.30;;;;;;5013203;28;20216;-71
2023/05/19 06:32:07;;;;;;;3.87;2.17;;;13.20;98.50;;;;;;5024203;28;20224;-71
2023/05/19 06:34:33;;;;;;;2.90;2.13;;;13.20;98.50;;;;;;5015582;28;20598;-71
2023/05/19 06:37:01;;;;;;;2.53;2.20;;;13.30;98.40;;;;;;5007039;28;20551;-71
2023/05/19 06:39:27;;;;;;;1.90;1.80;;;13.20;98.40;;;;;;5024576;28;20216;-71
2023/05/19 06:41:53;;;;;;;5.00;2.20;;;13.20;98.60;;;;;;5008460;28;20464;-72
2023/05/19 06:44:37;;;;;;;2.50;2.20;;;13.30;98.70;;;;;;5021110;28;20882;-71
2023/05/19 06:47:07;;;;;;;2.00;1.90;;;13.50;98.70;;;;;;5010235;28;20456;-71
2023/05/19 06:49:33;;;;;;;2.70;2.23;;;13.60;98.60;;;;;;5011720;28;20444;-70
2023/05/19 06:51:59;;;;;;;3.47;3.17;;;13.60;98.70;;;;;;4998531;28;20561;-72
2023/05/19 06:54:24;;;;;;;2.13;1.57;;;13.60;98.50;;;;;;5024861;28;20698;-70
2023/05/19 06:56:50;;;;;;;2.53;1.90;;;13.70;98.80;;;;;;5017479;28;20698;-72
2023/05/19 06:59:16;;;;;;;6.03;1.97;;;13.80;98.80;;;;;;5018580;28;20212;-72
2023/05/19 07:01:43;;;;;;;2.43;1.70;;;13.90;98.70;;;;;;5020118;28;20210;-71
2023/05/19 07:04:08;;;;;;;4.90;2.43;;;14.10;98.70;;;;;;5014848;28;20479;-71
2023/05/19 07:06:34;;;;;;;3.90;2.10;;;14.10;98.40;;;;;;5021257;28;20746;-71
2023/05/19 07:09:00;;;;;;;1.80;1.70;;;14.20;98.80;;;;;;5014000;28;20768;-72
2023/05/19 07:11:27;;;;;;;3.13;1.90;;;14.20;98.40;;;;;;4998398;28;20202;-72
2023/05/19 07:13:53;;;;;;;3.03;1.67;;;14.30;98.50;;;;;;5013850;28;20993;-72
2023/05/19 07:16:24;;;;;;;2.70;1.90;;;14.30;98.10;;;;;;5006088;28;20252;-72
2023/05/19 07:18:50;;;;;;;4.90;2.07;;;14.40;97.90;;;;;;5021193;28;20881;-71
2023/05/19 07:21:16;;;;;;;4.60;2.30;;;14.40;97.90;;;;;;5012160;28;20225;-71
2023/05/19 07:23:41;;;;;;;2.30;1.80;;;14.40;98.00;;;;;;5027478;28;20236;-72
2023/05/19 07:26:07;;;;;;;4.50;2.37;;;14.40;97.60;;;;;;5003822;28;20695;-71
2023/05/19 07:28:33;;;;;;;2.47;2.10;;;14.40;97.40;;;;;;5016593;28;20228;-71
2023/05/19 07:30:59;;;;;;;3.70;2.07;;;14.40;97.40;;;;;;5023611;28;20685;-72
2023/05/19 07:33:25;;;;;;;3.33;2.00;;;14.50;97.60;;;;;;5038274;28;20252;-72
2023/05/19 07:35:52;;;;;;;4.90;1.93;;;14.40;97.50;;;;;;5041879;28;20478;-70
2023/05/19 07:38:18;;;;;;;2.00;1.80;;;14.50;97.20;;;;;;5019861;28;20467;-71
2023/05/19 07:40:43;;;;;;;1.70;1.60;;;14.50;97.30;;;;;;5014432;28;20474;-71
2023/05/19 07:43:10;;;;;;;4.60;2.10;;;14.70;97.40;;;;;;5009838;28;20360;-71
2023/05/19 07:45:36;;;;;;;2.07;1.70;;;14.70;97.60;;;;;;5026715;28;20311;-72
2023/05/19 07:48:02;;;;;;;5.47;2.83;;;14.80;97.20;;;;;;5020257;28;20543;-71
2023/05/19 07:50:28;;;;;;;4.40;2.20;;;14.90;97.50;;;;;;5022091;28;20510;-71
2023/05/19 07:52:54;;;;;;;1.97;1.77;;;15.00;97.20;;;;;;5022837;28;21031;-72
2023/05/19 07:55:21;;;;;;;4.23;2.37;;;15.00;96.90;;;;;;5014717;28;20233;-72
2023/05/19 07:57:48;;;;;;;2.73;1.93;;;15.00;97.10;;;;;;5019087;28;20300;-71
2023/05/19 08:00:14;;;;;;;3.50;2.53;;;15.10;97.10;;;;;;4992465;28;20472;-72
2023/05/19 08:02:40;;;;;;;4.23;2.20;;;15.10;97.20;;;;;;5000844;28;20852;-71
2023/05/19 08:05:08;;;;;;;3.60;2.13;;;15.20;97.30;;;;;;4994649;28;20476;-71
2023/05/19 08:07:33;;;;;;;2.57;2.10;;;15.30;97.20;;;;;;5023758;28;20553;-72
2023/05/19 08:09:59;;;;;;;3.27;1.90;;;15.40;97.20;;;;;;4994321;28;20560;-72
2023/05/19 08:12:25;;;;;;;3.57;2.00;;;15.40;97.00;;;;;;5021355;28;20308;-72
2023/05/19 08:14:51;;;;;;;6.20;2.20;;;15.50;97.20;;;;;;5007843;28;20229;-71
2023/05/19 08:17:17;;;;;;;2.90;2.60;;;15.60;97.20;;;;;;5014622;28;20237;-72
2023/05/19 08:19:43;;;;;;;3.20;2.03;;;15.70;97.10;;;;;;5024896;28;20455;-71
2023/05/19 08:22:09;;;;;;;2.20;2.00;;;15.80;97.00;;;;;;5010498;28;20517;-72
2023/05/19 08:24:34;;;;;;;2.17;2.00;;;15.90;97.10;;;;;;5024043;28;20456;-72
2023/05/19 08:27:00;;;;;;;2.07;1.97;;;16.00;97.10;;;;;;5022192;28;20336;-72
2023/05/19 08:29:25;;;;;;;3.00;2.10;;;15.90;97.10;;;;;;5013058;28;20236;-71
2023/05/19 08:31:52;;;;;;;2.57;2.00;;;16.10;97.30;;;;;;5028496;28;20246;-72
2023/05/19 08:34:18;;;;;;;2.30;2.00;;;16.20;96.90;;;;;;4997870;28;20217;-72
2023/05/19 08:36:44;;;;;;;2.93;2.37;;;16.20;97.20;;;;;;5011636;28;20913;-72
2023/05/19 08:39:10;;;;;;;5.67;2.10;;;16.30;97.10;;;;;;5023705;28;20462;-71
2023/05/19 08:41:36;;;;;;;4.80;2.00;;;16.60;96.90;;;;;;5024132;28;20572;-72
2023/05/19 08:44:03;;;;;;;4.80;2.30;;;16.70;96.80;;;;;;5029241;28;20996;-71
2023/05/19 08:46:29;;;;;;;2.90;1.83;;;16.90;96.60;;;;;;5021172;28;20255;-71
2023/05/19 08:49:03;;;;;;;7.30;2.93;;;16.80;96.60;;;;;;5025656;28;20471;-71
2023/05/19 08:51:32;;;;;;;2.63;2.23;;;16.70;97.00;;;;;;5005190;28;20252;-72
2023/05/19 08:54:07;;;;;;;3.60;2.40;;;16.80;96.90;;;;;;5019310;28;20463;-72
2023/05/19 08:56:33;;;;;;;3.20;2.27;;;16.90;96.50;;;;;;5036205;28;20998;-73
2023/05/19 08:58:59;;;;;;;2.80;2.30;;;16.80;96.40;;;;;;5021010;28;20467;-72
2023/05/19 09:01:27;;;;;;;5.63;2.10;;;16.90;96.60;;;;;;5031927;28;20228;-72
2023/05/19 09:03:53;;;;;;;2.80;2.53;;;17.10;96.60;;;;;;5031573;28;20485;-72
2023/05/19 09:06:20;;;;;;;3.20;1.97;;;17.30;96.80;;;;;;5043281;28;20817;-72
2023/05/19 09:08:47;;;;;;;4.83;2.73;;;17.30;96.90;;;;;;5049917;28;20887;-71
2023/05/19 09:11:13;;;;;;;4.70;2.10;;;17.50;96.70;;;;;;5032694;28;20537;-71
2023/05/19 09:13:39;;;;;;;2.40;2.03;;;17.40;96.00;;;;;;5014191;28;20471;-72
2023/05/19 09:16:05;;;;;;;3.80;2.10;;;17.40;95.50;;;;;;5029250;28;20461;-72
2023/05/19 09:18:31;;;;;;;2.73;1.83;;;17.20;96.10;;;;;;5026119;28;20467;-72
2023/05/19 09:21:04;;;;;;;3.10;2.40;;;17.60;96.30;;;;;;5026926;28;20460;-72
2023/05/19 09:23:32;;;;;;;2.10;2.00;;;17.60;95.70;;;;;;5031812;28;20707;-71
2023/05/19 09:26:06;;;;;;;2.30;2.00;;;17.40;95.50;;;;;;5011973;28;20482;-73
2023/05/19 09:28:33;;;;;;;5.10;1.93;;;17.30;95.80;;;;;;5031836;28;20452;-71
2023/05/19 09:31:03;;;;;;;2.80;2.07;;;17.60;95.30;;;;;;5036857;28;20468;-73
2023/05/19 09:33:29;;;;;;;3.40;2.20;;;17.60;94.50;;;;;;5030997;28;20458;-72
2023/05/19 09:35:56;;;;;;;2.80;2.03;;;17.80;94.20;;;;;;5029275;28;20475;-73
2023/05/19 09:38:24;;;;;;;8.37;2.53;;;17.80;94.20;;;;;;5035417;28;20482;-73
2023/05/19 09:40:50;;;;;;;2.37;1.83;;;17.90;93.60;;;;;;5024224;28;20464;-71
2023/05/19 09:43:16;;;;;;;3.37;1.90;;;18.40;93.60;;;;;;5031512;28;21012;-72
2023/05/19 09:45:42;;;;;;;2.03;1.90;;;18.00;93.50;;;;;;5052818;28;20459;-72
2023/05/19 09:48:08;;;;;;;2.60;2.03;;;17.80;94.00;;;;;;5035913;28;20242;-72
2023/05/19 09:50:34;;;;;;;3.47;1.87;;;18.20;94.00;;;;;;5033109;28;20213;-72
2023/05/19 09:53:01;;;;;;;3.10;1.73;;;18.40;93.20;;;;;;5020370;28;20217;-73
2023/05/19 09:55:28;;;;;;;3.53;2.27;;;18.50;93.00;;;;;;5004947;28;20464;-73
2023/05/19 09:57:55;;;;;;;4.37;1.83;;;18.50;92.60;;;;;;5010657;28;21056;-73
2023/05/19 10:00:22;;;;;;;2.17;2.00;;;18.40;93.10;;;;;;5020009;28;20460;-73
2023/05/19 10:02:49;;;;;;;9.70;1.97;;;18.50;92.90;;;;;;5025849;28;20459;-73
2023/05/19 10:05:18;;;;;;;3.73;2.00;;;18.50;93.00;;;;;;5029455;28;20475;-71
2023/05/19 10:07:51;;;;;;;4.80;2.87;;;18.70;92.90;;;;;;5015541;28;20496;-72
2023/05/19 10:10:21;;;;;;;3.10;1.90;;;18.40;92.80;;;;;;5011610;28;20480;-71
2023/05/19 10:12:49;;;;;;;2.67;1.93;;;18.20;93.10;;;;;;5007732;28;20464;-71
2023/05/19 10:15:18;;;;;;;4.90;2.13;;;18.70;92.80;;;;;;5020350;28;20558;-71
2023/05/19 10:17:44;;;;;;;1.90;1.80;;;18.80;92.90;;;;;;5024358;28;20472;-72
2023/05/19 10:20:11;;;;;;;16.53;4.23;;;18.70;92.80;;;;;;5017754;28;20532;-72
2023/05/19 10:22:41;;;;;;;1.90;1.73;;;18.80;92.50;;;;;;5022670;28;20485;-72
2023/05/19 10:25:08;;;;;;;2.10;1.73;;;18.90;92.40;;;;;;5022075;28;20973;-72
2023/05/19 10:27:42;;;;;;;5.00;2.27;;;18.80;92.20;;;;;;5030465;28;20471;-72
2023/05/19 10:30:16;;;;;;;3.90;2.10;;;18.80;92.50;;;;;;5016657;28;20915;-72
2023/05/19 10:32:45;;;;;;;2.17;1.90;;;18.90;91.80;;;;;;5015263;28;20468;-72
2023/05/19 10:35:11;;;;;;;3.30;2.40;;;19.10;91.30;;;;;;4999175;28;20472;-70
2023/05/19 10:37:54;;;;;;;2.30;2.10;;;18.80;91.50;;;;;;5028104;28;21003;-72
2023/05/19 10:40:31;;;;;;;2.57;2.37;;;18.80;91.50;;;;;;5009723;28;20292;-72
2023/05/19 10:43:06;;;;;;;2.10;1.90;;;18.90;91.40;;;;;;5013791;28;20483;-72
2023/05/19 10:45:40;;;;;;;2.03;1.93;;;18.70;91.80;;;;;;5016535;28;20473;-72
2023/05/19 10:48:13;;;;;;;5.87;2.10;;;18.90;91.60;;;;;;4996002;28;20963;-72
2023/05/19 10:50:39;;;;;;;1.97;1.60;;;19.20;91.20;;;;;;5022982;28;20535;-71
2023/05/19 10:53:17;;;;;;;4.13;2.20;;;18.90;91.30;;;;;;5026856;28;20621;-72
2023/05/19 10:55:55;;;;;;;5.33;1.80;;;18.90;90.90;;;;;;5029086;28;20218;-73
2023/05/19 10:58:42;;;;;;;1.57;1.40;;;19.30;90.70;;;;;;5002371;28;20489;-72
2023/05/19 11:01:16;;;;;;;2.60;1.90;;;19.60;90.20;;;;;;5027436;28;20463;-73
2023/05/19 11:03:45;;;;;;;5.10;2.00;;;19.40;90.40;;;;;;5030452;28;21015;-72
2023/05/19 11:06:26;;;;;;;2.23;2.10;;;19.60;90.10;;;;;;5028777;28;20509;-72
2023/05/19 11:09:17;;;;;;;1.80;1.53;;;19.80;90.00;;;;;;5024725;28;20476;-72
2023/05/19 11:11:48;;;;;;;2.57;2.10;;;19.70;90.50;;;;;;5005359;28;20467;-73
2023/05/19 11:14:19;;;;;;;5.13;2.00;;;19.60;90.20;;;;;;5029113;28;21004;-72
2023/05/19 11:16:56;;;;;;;1.73;1.63;;;19.60;90.00;;;;;;5008363;28;20479;-72
2023/05/19 11:19:26;;;;;;;1.77;1.67;;;19.60;90.10;;;;;;4999565;28;20560;-72
2023/05/19 11:21:54;;;;;;;4.83;1.70;;;19.90;89.40;;;;;;5027005;28;20487;-72
2023/05/19 11:24:39;;;;;;;2.73;2.33;;;19.70;89.90;;;;;;5030773;28;20478;-73
2023/05/19 11:27:27;;;;;;;4.10;1.97;;;20.00;89.10;;;;;;5034585;28;20495;-72
2023/05/19 11:30:13;;;;;;;6.70;2.60;;;19.80;89.10;;;;;;5016722;28;20551;-73
2023/05/19 11:32:41;;;;;;;2.90;1.90;;;19.50;88.80;;;;;;5004815;28;20460;-72
2023/05/19 11:35:08;;;;;;;2.20;1.97;;;19.40;90.20;;;;;;5025534;28;20975;-72
2023/05/19 11:37:35;;;;;;;2.93;1.80;;;19.20;90.00;;;;;;5016241;28;20539;-72
2023/05/19 11:40:06;;;;;;;3.97;2.13;;;19.70;90.00;;;;;;5016713;28;20469;-73
2023/05/19 11:42:33;;;;;;;2.03;1.83;;;19.90;89.30;;;;;;5029643;28;20503;-72
2023/05/19 11:44:59;;;;;;;2.80;1.83;;;19.70;90.00;;;;;;5029438;28;20466;-72
2023/05/19 11:47:26;;;;;;;2.10;1.90;;;19.50;90.20;;;;;;5012195;28;20464;-72
2023/05/19 11:49:53;;;;;;;3.50;2.00;;;20.00;90.00;;;;;;5021179;28;21001;-72
2023/05/19 11:52:29;;;;;;;3.23;2.07;;;20.20;89.30;;;;;;5032503;28;20548;-72
2023/05/19 11:54:59;;;;;;;2.70;1.80;;;19.70;89.90;;;;;;5023433;28;21954;-72
2023/05/19 11:57:25;;;;;;;2.80;1.90;;;19.20;90.40;;;;;;5004232;28;20866;-71
2023/05/19 11:59:52;;;;;;;4.37;1.83;;;19.20;90.50;;;;;;5025766;28;20464;-72
2023/05/19 12:02:19;;;;;;;3.13;2.00;;;19.30;90.50;;;;;;5026838;28;20805;-72
2023/05/19 12:04:49;;;;;;;3.63;1.73;;;19.70;90.20;;;;;;5025504;28;20543;-72
2023/05/19 12:07:17;;;;;;;6.90;2.20;;;19.80;90.40;;;;;;5012402;28;20457;-72
2023/05/19 12:09:46;;;;;;;1.90;1.57;;;19.90;90.50;;;;;;5021019;28;20487;-72
2023/05/19 12:12:16;;;;;;;2.53;1.80;;;19.80;90.80;;;;;;5023178;28;20483;-72
2023/05/19 12:14:42;;;;;;;2.60;1.77;;;19.70;90.10;;;;;;5022097;28;20478;-72
2023/05/19 12:17:16;;;;;;;3.37;1.87;;;20.10;90.10;;;;;;5018366;28;20529;-71
2023/05/19 12:19:47;;;;;;;2.37;1.83;;;20.10;90.30;;;;;;5021552;28;20447;-72
2023/05/19 12:22:14;;;;;;;2.10;1.80;;;19.90;90.40;;;;;;5022806;28;20457;-72
2023/05/19 12:24:41;;;;;;;3.70;1.73;;;19.80;90.20;;;;;;5027810;28;20450;-72
2023/05/19 12:27:12;;;;;;;3.77;1.90;;;19.90;89.70;;;;;;5024449;28;20858;-72
2023/05/19 12:29:38;;;;;;;1.60;1.50;;;20.10;89.20;;;;;;5034452;28;20461;-73
2023/05/19 12:32:08;;;;;;;4.53;1.93;;;20.10;89.40;;;;;;5010358;28;20483;-72
2023/05/19 12:34:38;;;;;;;2.93;2.10;;;20.20;89.40;;;;;;5012213;28;20520;-71
2023/05/19 12:37:04;;;;;;;3.10;1.60;;;20.20;90.10;;;;;;5000196;28;20544;-72
2023/05/19 12:39:31;;;;;;;4.40;2.00;;;20.10;89.40;;;;;;5015775;28;20444;-73
2023/05/19 12:42:11;;;;;;;2.10;2.00;;;20.20;89.20;;;;;;5022574;28;20482;-72
2023/05/19 12:44:41;;;;;;;2.07;1.90;;;20.30;88.50;;;;;;5026217;28;20450;-73
2023/05/19 12:47:07;;;;;;;2.80;2.13;;;20.40;90.00;;;;;;5022564;28;20456;-72
2023/05/19 12:49:33;;;;;;;5.03;2.70;;;19.90;90.10;;;;;;5022391;28;20505;-73
2023/05/19 12:52:04;;;;;;;3.20;2.00;;;19.90;90.50;;;;;;5030681;28;20455;-73
2023/05/19 12:54:33;;;;;;;4.00;2.27;;;19.70;90.60;;;;;;5027411;28;20209;-73